sensor_id;sensor_type;location;lat;lon;timestamp;P1;durP1;ratioP1;P2;durP2;ratioP2
30533;SDS011;17318;52.390;9.754;2023-07-31T00:00:10;5.28;;;2.10;;
30533;SDS011;17318;52.390;9.754;2023-07-31T00:02:36;5.03;;;1.80;;
30533;SDS011;17318;52.390;9.754;2023-07-31T00:05:01;3.35;;;1.58;;
30533;SDS011;17318;52.390;9.754;2023-07-31T00:07:28;5.03;;;1.83;;
30533;SDS011;17318;52.390;9.754;2023-07-31T00:09:53;5.55;;;1.60;;
30533;SDS011;17318;52.390;9.754;2023-07-31T00:12:19;3.40;;;1.80;;
30533;SDS011;17318;52.390;9.754;2023-07-31T00:14:45;5.80;;;1.98;;
30533;SDS011;17318;52.390;9.754;2023-07-31T00:17:11;3.47;;;1.70;;
30533;SDS011;17318;52.390;9.754;2023-07-31T00:19:37;3.50;;;1.77;;
30533;SDS011;17318;52.390;9.754;2023-07-31T00:22:02;4.18;;;1.23;;
30533;SDS011;17318;52.390;9.754;2023-07-31T00:24:28;3.42;;;1.40;;
30533;SDS011;17318;52.390;9.754;2023-07-31T00:26:54;4.57;;;1.83;;
30533;SDS011;17318;52.390;9.754;2023-07-31T00:29:19;5.10;;;1.50;;
30533;SDS011;17318;52.390;9.754;2023-07-31T00:31:45;4.15;;;1.83;;
30533;SDS011;17318;52.390;9.754;2023-07-31T00:34:10;5.80;;;1.90;;
30533;SDS011;17318;52.390;9.754;2023-07-31T00:36:36;4.05;;;1.45;;
30533;SDS011;17318;52.390;9.754;2023-07-31T00:39:02;2.47;;;1.42;;
30533;SDS011;17318;52.390;9.754;2023-07-31T00:41:27;2.63;;;1.50;;
30533;SDS011;17318;52.390;9.754;2023-07-31T00:43:53;3.20;;;1.40;;
30533;SDS011;17318;52.390;9.754;2023-07-31T00:46:19;4.70;;;1.40;;
30533;SDS011;17318;52.390;9.754;2023-07-31T00:48:45;3.20;;;1.27;;
30533;SDS011;17318;52.390;9.754;2023-07-31T00:51:11;4.47;;;1.52;;
30533;SDS011;17318;52.390;9.754;2023-07-31T00:53:36;2.92;;;1.40;;
30533;SDS011;17318;52.390;9.754;2023-07-31T00:56:03;2.13;;;1.10;;
30533;SDS011;17318;52.390;9.754;2023-07-31T00:58:29;6.78;;;1.48;;
30533;SDS011;17318;52.390;9.754;2023-07-31T01:00:55;5.38;;;1.40;;
30533;SDS011;17318;52.390;9.754;2023-07-31T01:03:20;3.85;;;1.70;;
30533;SDS011;17318;52.390;9.754;2023-07-31T01:11:28;5.90;;;1.35;;
30533;SDS011;17318;52.390;9.754;2023-07-31T01:13:56;1.73;;;1.08;;
30533;SDS011;17318;52.390;9.754;2023-07-31T01:16:22;6.32;;;1.52;;
30533;SDS011;17318;52.390;9.754;2023-07-31T01:18:48;3.97;;;1.30;;
30533;SDS011;17318;52.390;9.754;2023-07-31T01:24:49;2.95;;;1.10;;
30533;SDS011;17318;52.390;9.754;2023-07-31T01:27:09;6.78;;;1.77;;
30533;SDS011;17318;52.390;9.754;2023-07-31T01:32:39;2.67;;;1.45;;
30533;SDS011;17318;52.390;9.754;2023-07-31T01:35:07;2.08;;;1.05;;
30533;SDS011;17318;52.390;9.754;2023-07-31T01:37:33;3.47;;;1.55;;
30533;SDS011;17318;52.390;9.754;2023-07-31T01:39:59;5.38;;;1.45;;
30533;SDS011;17318;52.390;9.754;2023-07-31T01:42:25;2.80;;;1.10;;
30533;SDS011;17318;52.390;9.754;2023-07-31T01:44:50;3.42;;;1.20;;
30533;SDS011;17318;52.390;9.754;2023-07-31T01:47:16;2.28;;;1.20;;
30533;SDS011;17318;52.390;9.754;2023-07-31T01:49:42;1.02;;;0.88;;
30533;SDS011;17318;52.390;9.754;2023-07-31T01:52:07;4.35;;;1.25;;
30533;SDS011;17318;52.390;9.754;2023-07-31T01:54:33;6.50;;;1.20;;
30533;SDS011;17318;52.390;9.754;2023-07-31T01:56:59;2.10;;;1.17;;
30533;SDS011;17318;52.390;9.754;2023-07-31T01:59:24;3.80;;;1.13;;
30533;SDS011;17318;52.390;9.754;2023-07-31T02:01:50;1.33;;;0.80;;
30533;SDS011;17318;52.390;9.754;2023-07-31T02:04:16;1.10;;;0.90;;
30533;SDS011;17318;52.390;9.754;2023-07-31T02:06:41;2.35;;;1.00;;
30533;SDS011;17318;52.390;9.754;2023-07-31T02:09:08;3.55;;;1.33;;
30533;SDS011;17318;52.390;9.754;2023-07-31T02:11:34;2.45;;;1.27;;
30533;SDS011;17318;52.390;9.754;2023-07-31T02:13:59;1.40;;;0.82;;
30533;SDS011;17318;52.390;9.754;2023-07-31T02:16:25;2.63;;;1.15;;
30533;SDS011;17318;52.390;9.754;2023-07-31T02:18:50;8.23;;;1.05;;
30533;SDS011;17318;52.390;9.754;2023-07-31T02:21:16;1.90;;;0.75;;
30533;SDS011;17318;52.390;9.754;2023-07-31T02:23:42;5.05;;;1.40;;
30533;SDS011;17318;52.390;9.754;2023-07-31T02:26:07;1.80;;;0.70;;
30533;SDS011;17318;52.390;9.754;2023-07-31T02:28:33;3.25;;;0.90;;
30533;SDS011;17318;52.390;9.754;2023-07-31T02:30:59;6.03;;;0.80;;
30533;SDS011;17318;52.390;9.754;2023-07-31T02:33:24;1.42;;;0.60;;
30533;SDS011;17318;52.390;9.754;2023-07-31T02:35:50;0.95;;;0.60;;
30533;SDS011;17318;52.390;9.754;2023-07-31T02:38:15;1.70;;;0.73;;
30533;SDS011;17318;52.390;9.754;2023-07-31T02:40:41;1.38;;;0.63;;
30533;SDS011;17318;52.390;9.754;2023-07-31T02:43:07;1.95;;;0.93;;
30533;SDS011;17318;52.390;9.754;2023-07-31T02:45:33;4.75;;;1.20;;
30533;SDS011;17318;52.390;9.754;2023-07-31T02:47:59;0.70;;;0.50;;
30533;SDS011;17318;52.390;9.754;2023-07-31T02:50:25;1.77;;;0.70;;
30533;SDS011;17318;52.390;9.754;2023-07-31T02:52:52;1.73;;;0.88;;
30533;SDS011;17318;52.390;9.754;2023-07-31T02:55:18;0.95;;;0.60;;
30533;SDS011;17318;52.390;9.754;2023-07-31T02:57:44;2.03;;;0.93;;
30533;SDS011;17318;52.390;9.754;2023-07-31T03:00:09;1.30;;;0.93;;
30533;SDS011;17318;52.390;9.754;2023-07-31T03:02:35;1.65;;;0.88;;
30533;SDS011;17318;52.390;9.754;2023-07-31T03:05:01;0.77;;;0.55;;
30533;SDS011;17318;52.390;9.754;2023-07-31T03:07:26;1.23;;;0.52;;
30533;SDS011;17318;52.390;9.754;2023-07-31T03:09:52;1.50;;;0.93;;
30533;SDS011;17318;52.390;9.754;2023-07-31T03:12:17;2.58;;;0.85;;
30533;SDS011;17318;52.390;9.754;2023-07-31T03:14:44;0.88;;;0.70;;
30533;SDS011;17318;52.390;9.754;2023-07-31T03:17:10;3.30;;;0.70;;
30533;SDS011;17318;52.390;9.754;2023-07-31T03:19:37;2.47;;;0.90;;
30533;SDS011;17318;52.390;9.754;2023-07-31T03:22:02;3.10;;;0.63;;
30533;SDS011;17318;52.390;9.754;2023-07-31T03:24:28;1.15;;;0.88;;
30533;SDS011;17318;52.390;9.754;2023-07-31T03:26:54;2.83;;;1.00;;
30533;SDS011;17318;52.390;9.754;2023-07-31T03:29:20;0.88;;;0.70;;
30533;SDS011;17318;52.390;9.754;2023-07-31T03:31:45;2.25;;;0.93;;
30533;SDS011;17318;52.390;9.754;2023-07-31T03:34:11;3.00;;;0.80;;
30533;SDS011;17318;52.390;9.754;2023-07-31T03:36:37;1.65;;;0.60;;
30533;SDS011;17318;52.390;9.754;2023-07-31T03:39:02;2.33;;;0.88;;
30533;SDS011;17318;52.390;9.754;2023-07-31T03:41:28;2.13;;;0.95;;
30533;SDS011;17318;52.390;9.754;2023-07-31T03:43:54;3.55;;;0.73;;
30533;SDS011;17318;52.390;9.754;2023-07-31T03:46:23;2.17;;;0.80;;
30533;SDS011;17318;52.390;9.754;2023-07-31T03:48:49;1.33;;;0.75;;
30533;SDS011;17318;52.390;9.754;2023-07-31T03:51:15;2.38;;;0.63;;
30533;SDS011;17318;52.390;9.754;2023-07-31T03:53:42;0.80;;;0.63;;
30533;SDS011;17318;52.390;9.754;2023-07-31T03:56:08;1.50;;;0.80;;
30533;SDS011;17318;52.390;9.754;2023-07-31T03:58:33;2.38;;;1.00;;
30533;SDS011;17318;52.390;9.754;2023-07-31T04:01:00;0.80;;;0.63;;
30533;SDS011;17318;52.390;9.754;2023-07-31T04:03:25;0.85;;;0.73;;
30533;SDS011;17318;52.390;9.754;2023-07-31T04:05:53;2.95;;;1.00;;
30533;SDS011;17318;52.390;9.754;2023-07-31T04:08:19;1.92;;;0.60;;
30533;SDS011;17318;52.390;9.754;2023-07-31T04:10:45;1.35;;;0.98;;
30533;SDS011;17318;52.390;9.754;2023-07-31T04:13:10;2.30;;;1.10;;
30533;SDS011;17318;52.390;9.754;2023-07-31T04:15:36;9.80;;;2.22;;
30533;SDS011;17318;52.390;9.754;2023-07-31T04:18:01;2.28;;;1.13;;
30533;SDS011;17318;52.390;9.754;2023-07-31T04:20:27;1.30;;;0.60;;
30533;SDS011;17318;52.390;9.754;2023-07-31T04:22:53;1.95;;;0.57;;
30533;SDS011;17318;52.390;9.754;2023-07-31T04:25:18;0.98;;;0.90;;
30533;SDS011;17318;52.390;9.754;2023-07-31T04:27:44;3.13;;;1.05;;
30533;SDS011;17318;52.390;9.754;2023-07-31T04:30:09;1.08;;;0.75;;
30533;SDS011;17318;52.390;9.754;2023-07-31T04:32:35;2.00;;;1.13;;
30533;SDS011;17318;52.390;9.754;2023-07-31T04:35:01;1.90;;;1.00;;
30533;SDS011;17318;52.390;9.754;2023-07-31T04:37:27;1.08;;;0.75;;
30533;SDS011;17318;52.390;9.754;2023-07-31T04:39:53;1.23;;;0.85;;
30533;SDS011;17318;52.390;9.754;2023-07-31T04:42:18;3.08;;;1.05;;
30533;SDS011;17318;52.390;9.754;2023-07-31T04:44:44;1.85;;;0.90;;
30533;SDS011;17318;52.390;9.754;2023-07-31T04:47:10;1.35;;;0.82;;
30533;SDS011;17318;52.390;9.754;2023-07-31T04:49:35;2.17;;;0.75;;
30533;SDS011;17318;52.390;9.754;2023-07-31T04:52:01;1.90;;;0.80;;
30533;SDS011;17318;52.390;9.754;2023-07-31T04:54:27;2.72;;;1.55;;
30533;SDS011;17318;52.390;9.754;2023-07-31T04:56:52;1.33;;;0.80;;
30533;SDS011;17318;52.390;9.754;2023-07-31T04:59:18;1.30;;;0.70;;
30533;SDS011;17318;52.390;9.754;2023-07-31T05:01:44;0.40;;;0.40;;
30533;SDS011;17318;52.390;9.754;2023-07-31T05:04:13;2.58;;;0.63;;
30533;SDS011;17318;52.390;9.754;2023-07-31T05:06:39;0.63;;;0.50;;
30533;SDS011;17318;52.390;9.754;2023-07-31T05:09:05;1.02;;;0.40;;
30533;SDS011;17318;52.390;9.754;2023-07-31T05:11:31;1.63;;;0.63;;
30533;SDS011;17318;52.390;9.754;2023-07-31T05:13:57;0.88;;;0.60;;
30533;SDS011;17318;52.390;9.754;2023-07-31T05:16:22;2.90;;;0.60;;
30533;SDS011;17318;52.390;9.754;2023-07-31T05:18:48;1.42;;;0.60;;
30533;SDS011;17318;52.390;9.754;2023-07-31T05:21:14;1.40;;;0.60;;
30533;SDS011;17318;52.390;9.754;2023-07-31T05:23:39;0.60;;;0.30;;
30533;SDS011;17318;52.390;9.754;2023-07-31T05:26:05;0.63;;;0.50;;
30533;SDS011;17318;52.390;9.754;2023-07-31T05:28:33;0.57;;;0.55;;
30533;SDS011;17318;52.390;9.754;2023-07-31T05:31:00;0.70;;;0.70;;
30533;SDS011;17318;52.390;9.754;2023-07-31T05:33:26;2.45;;;0.60;;
30533;SDS011;17318;52.390;9.754;2023-07-31T05:35:52;1.00;;;0.45;;
30533;SDS011;17318;52.390;9.754;2023-07-31T05:38:18;1.08;;;0.57;;
30533;SDS011;17318;52.390;9.754;2023-07-31T05:40:43;3.42;;;0.93;;
30533;SDS011;17318;52.390;9.754;2023-07-31T05:43:09;1.30;;;0.77;;
30533;SDS011;17318;52.390;9.754;2023-07-31T05:45:35;3.30;;;1.35;;
30533;SDS011;17318;52.390;9.754;2023-07-31T05:48:01;2.72;;;1.50;;
30533;SDS011;17318;52.390;9.754;2023-07-31T05:50:27;4.70;;;1.17;;
30533;SDS011;17318;52.390;9.754;2023-07-31T05:52:53;2.72;;;1.80;;
30533;SDS011;17318;52.390;9.754;2023-07-31T05:55:19;5.88;;;2.58;;
30533;SDS011;17318;52.390;9.754;2023-07-31T05:57:44;3.60;;;1.98;;
30533;SDS011;17318;52.390;9.754;2023-07-31T06:00:11;6.03;;;3.25;;
30533;SDS011;17318;52.390;9.754;2023-07-31T06:02:38;4.03;;;2.87;;
30533;SDS011;17318;52.390;9.754;2023-07-31T06:05:04;14.18;;;5.00;;
30533;SDS011;17318;52.390;9.754;2023-07-31T06:07:33;10.75;;;5.20;;
30533;SDS011;17318;52.390;9.754;2023-07-31T06:09:59;5.68;;;4.22;;
30533;SDS011;17318;52.390;9.754;2023-07-31T06:12:29;11.98;;;4.85;;
30533;SDS011;17318;52.390;9.754;2023-07-31T06:14:56;11.02;;;6.30;;
30533;SDS011;17318;52.390;9.754;2023-07-31T06:17:22;10.60;;;5.68;;
30533;SDS011;17318;52.390;9.754;2023-07-31T06:19:47;12.13;;;6.28;;
30533;SDS011;17318;52.390;9.754;2023-07-31T06:22:14;13.07;;;5.35;;
30533;SDS011;17318;52.390;9.754;2023-07-31T06:24:39;10.40;;;5.57;;
30533;SDS011;17318;52.390;9.754;2023-07-31T06:27:05;17.67;;;5.80;;
30533;SDS011;17318;52.390;9.754;2023-07-31T06:29:31;11.48;;;6.88;;
30533;SDS011;17318;52.390;9.754;2023-07-31T06:31:57;8.25;;;4.72;;
30533;SDS011;17318;52.390;9.754;2023-07-31T06:34:23;8.02;;;5.05;;
30533;SDS011;17318;52.390;9.754;2023-07-31T06:36:49;9.18;;;5.20;;
30533;SDS011;17318;52.390;9.754;2023-07-31T06:39:14;8.85;;;5.60;;
30533;SDS011;17318;52.390;9.754;2023-07-31T06:41:40;11.93;;;5.60;;
30533;SDS011;17318;52.390;9.754;2023-07-31T06:44:06;9.23;;;4.78;;
30533;SDS011;17318;52.390;9.754;2023-07-31T06:46:32;8.48;;;4.70;;
30533;SDS011;17318;52.390;9.754;2023-07-31T06:48:58;11.93;;;5.57;;
30533;SDS011;17318;52.390;9.754;2023-07-31T06:51:23;8.88;;;5.28;;
30533;SDS011;17318;52.390;9.754;2023-07-31T06:53:49;12.57;;;5.72;;
30533;SDS011;17318;52.390;9.754;2023-07-31T06:56:14;13.65;;;5.68;;
30533;SDS011;17318;52.390;9.754;2023-07-31T06:58:40;11.30;;;5.28;;
30533;SDS011;17318;52.390;9.754;2023-07-31T07:01:06;13.50;;;5.85;;
30533;SDS011;17318;52.390;9.754;2023-07-31T07:03:32;12.23;;;5.60;;
30533;SDS011;17318;52.390;9.754;2023-07-31T07:05:57;10.98;;;5.78;;
30533;SDS011;17318;52.390;9.754;2023-07-31T07:08:24;8.63;;;5.47;;
30533;SDS011;17318;52.390;9.754;2023-07-31T07:10:49;16.35;;;7.50;;
30533;SDS011;17318;52.390;9.754;2023-07-31T07:13:15;12.50;;;6.63;;
30533;SDS011;17318;52.390;9.754;2023-07-31T07:15:41;14.93;;;5.80;;
30533;SDS011;17318;52.390;9.754;2023-07-31T07:18:07;9.65;;;5.35;;
30533;SDS011;17318;52.390;9.754;2023-07-31T07:20:32;13.60;;;6.55;;
30533;SDS011;17318;52.390;9.754;2023-07-31T07:22:58;12.13;;;6.03;;
30533;SDS011;17318;52.390;9.754;2023-07-31T07:25:24;12.00;;;6.60;;
30533;SDS011;17318;52.390;9.754;2023-07-31T07:27:49;11.43;;;6.63;;
30533;SDS011;17318;52.390;9.754;2023-07-31T07:30:15;17.38;;;6.45;;
30533;SDS011;17318;52.390;9.754;2023-07-31T07:32:40;14.93;;;7.13;;
30533;SDS011;17318;52.390;9.754;2023-07-31T07:35:06;13.32;;;7.57;;
30533;SDS011;17318;52.390;9.754;2023-07-31T07:37:32;14.63;;;7.07;;
30533;SDS011;17318;52.390;9.754;2023-07-31T07:39:58;16.90;;;7.68;;
30533;SDS011;17318;52.390;9.754;2023-07-31T07:42:24;17.60;;;8.77;;
30533;SDS011;17318;52.390;9.754;2023-07-31T07:44:50;17.65;;;7.22;;
30533;SDS011;17318;52.390;9.754;2023-07-31T07:47:15;13.13;;;7.75;;
30533;SDS011;17318;52.390;9.754;2023-07-31T07:49:41;14.52;;;7.30;;
30533;SDS011;17318;52.390;9.754;2023-07-31T07:52:07;15.43;;;7.45;;
30533;SDS011;17318;52.390;9.754;2023-07-31T07:54:32;14.93;;;7.70;;
30533;SDS011;17318;52.390;9.754;2023-07-31T07:56:58;15.10;;;6.90;;
30533;SDS011;17318;52.390;9.754;2023-07-31T07:59:24;15.82;;;6.80;;
30533;SDS011;17318;52.390;9.754;2023-07-31T08:01:50;11.68;;;6.72;;
30533;SDS011;17318;52.390;9.754;2023-07-31T08:04:16;18.67;;;8.75;;
30533;SDS011;17318;52.390;9.754;2023-07-31T08:06:41;16.17;;;7.40;;
30533;SDS011;17318;52.390;9.754;2023-07-31T08:09:07;20.85;;;7.20;;
30533;SDS011;17318;52.390;9.754;2023-07-31T08:11:33;14.68;;;6.28;;
30533;SDS011;17318;52.390;9.754;2023-07-31T08:14:00;12.25;;;6.35;;
30533;SDS011;17318;52.390;9.754;2023-07-31T08:16:25;15.57;;;5.85;;
30533;SDS011;17318;52.390;9.754;2023-07-31T08:18:51;9.63;;;4.72;;
30533;SDS011;17318;52.390;9.754;2023-07-31T08:21:17;11.55;;;5.80;;
30533;SDS011;17318;52.390;9.754;2023-07-31T08:23:43;13.30;;;5.28;;
30533;SDS011;17318;52.390;9.754;2023-07-31T08:26:14;10.68;;;5.15;;
30533;SDS011;17318;52.390;9.754;2023-07-31T08:28:40;11.25;;;5.40;;
30533;SDS011;17318;52.390;9.754;2023-07-31T08:31:06;11.85;;;4.75;;
30533;SDS011;17318;52.390;9.754;2023-07-31T08:33:31;12.50;;;5.22;;
30533;SDS011;17318;52.390;9.754;2023-07-31T08:35:58;16.05;;;4.95;;
30533;SDS011;17318;52.390;9.754;2023-07-31T08:38:25;11.70;;;5.25;;
30533;SDS011;17318;52.390;9.754;2023-07-31T08:40:51;14.43;;;4.93;;
30533;SDS011;17318;52.390;9.754;2023-07-31T08:43:17;10.77;;;4.78;;
30533;SDS011;17318;52.390;9.754;2023-07-31T08:45:45;10.43;;;5.28;;
30533;SDS011;17318;52.390;9.754;2023-07-31T08:48:12;12.45;;;5.45;;
30533;SDS011;17318;52.390;9.754;2023-07-31T08:50:38;11.30;;;4.93;;
30533;SDS011;17318;52.390;9.754;2023-07-31T08:53:04;14.27;;;5.15;;
30533;SDS011;17318;52.390;9.754;2023-07-31T08:55:29;16.27;;;5.18;;
30533;SDS011;17318;52.390;9.754;2023-07-31T08:57:57;11.02;;;4.90;;
30533;SDS011;17318;52.390;9.754;2023-07-31T09:00:23;9.50;;;5.03;;
30533;SDS011;17318;52.390;9.754;2023-07-31T09:02:57;10.95;;;5.00;;
30533;SDS011;17318;52.390;9.754;2023-07-31T09:05:30;9.10;;;4.68;;
30533;SDS011;17318;52.390;9.754;2023-07-31T09:07:57;9.55;;;4.32;;
30533;SDS011;17318;52.390;9.754;2023-07-31T09:10:23;11.27;;;4.05;;
30533;SDS011;17318;52.390;9.754;2023-07-31T09:12:51;15.00;;;5.35;;
30533;SDS011;17318;52.390;9.754;2023-07-31T09:15:17;11.95;;;4.45;;
30533;SDS011;17318;52.390;9.754;2023-07-31T09:17:44;11.10;;;4.20;;
30533;SDS011;17318;52.390;9.754;2023-07-31T09:20:16;10.18;;;3.92;;
30533;SDS011;17318;52.390;9.754;2023-07-31T09:22:44;8.73;;;4.05;;
30533;SDS011;17318;52.390;9.754;2023-07-31T09:25:14;10.27;;;4.15;;
30533;SDS011;17318;52.390;9.754;2023-07-31T09:27:54;6.75;;;3.70;;
30533;SDS011;17318;52.390;9.754;2023-07-31T09:30:22;9.63;;;3.83;;
30533;SDS011;17318;52.390;9.754;2023-07-31T09:32:48;6.40;;;3.88;;
30533;SDS011;17318;52.390;9.754;2023-07-31T09:35:22;7.28;;;3.92;;
30533;SDS011;17318;52.390;9.754;2023-07-31T09:37:58;8.00;;;3.97;;
30533;SDS011;17318;52.390;9.754;2023-07-31T09:40:48;8.15;;;3.42;;
30533;SDS011;17318;52.390;9.754;2023-07-31T09:43:18;7.72;;;3.35;;
30533;SDS011;17318;52.390;9.754;2023-07-31T09:45:46;6.70;;;3.05;;
30533;SDS011;17318;52.390;9.754;2023-07-31T09:48:12;8.55;;;2.90;;
30533;SDS011;17318;52.390;9.754;2023-07-31T09:50:47;8.43;;;2.85;;
30533;SDS011;17318;52.390;9.754;2023-07-31T09:53:13;5.25;;;2.75;;
30533;SDS011;17318;52.390;9.754;2023-07-31T09:55:41;6.68;;;3.55;;
30533;SDS011;17318;52.390;9.754;2023-07-31T09:58:08;4.35;;;2.47;;
30533;SDS011;17318;52.390;9.754;2023-07-31T10:00:35;4.68;;;2.50;;
30533;SDS011;17318;52.390;9.754;2023-07-31T10:03:02;5.97;;;2.45;;
30533;SDS011;17318;52.390;9.754;2023-07-31T10:05:40;9.40;;;2.67;;
30533;SDS011;17318;52.390;9.754;2023-07-31T10:08:10;4.78;;;2.08;;
30533;SDS011;17318;52.390;9.754;2023-07-31T10:10:41;6.57;;;2.22;;
30533;SDS011;17318;52.390;9.754;2023-07-31T10:13:10;4.07;;;1.88;;
30533;SDS011;17318;52.390;9.754;2023-07-31T10:15:37;6.65;;;2.20;;
30533;SDS011;17318;52.390;9.754;2023-07-31T10:18:03;2.25;;;1.70;;
30533;SDS011;17318;52.390;9.754;2023-07-31T10:20:31;3.95;;;1.70;;
30533;SDS011;17318;52.390;9.754;2023-07-31T10:22:57;5.70;;;1.92;;
30533;SDS011;17318;52.390;9.754;2023-07-31T10:25:24;5.13;;;1.70;;
30533;SDS011;17318;52.390;9.754;2023-07-31T10:27:51;1.70;;;1.52;;
30533;SDS011;17318;52.390;9.754;2023-07-31T10:30:19;4.00;;;2.00;;
30533;SDS011;17318;52.390;9.754;2023-07-31T10:32:47;3.58;;;2.10;;
30533;SDS011;17318;52.390;9.754;2023-07-31T10:35:15;3.38;;;2.10;;
30533;SDS011;17318;52.390;9.754;2023-07-31T10:37:42;4.20;;;2.20;;
30533;SDS011;17318;52.390;9.754;2023-07-31T10:42:45;2.83;;;1.98;;
30533;SDS011;17318;52.390;9.754;2023-07-31T10:45:13;2.72;;;1.90;;
30533;SDS011;17318;52.390;9.754;2023-07-31T10:47:45;4.93;;;1.85;;
30533;SDS011;17318;52.390;9.754;2023-07-31T10:50:18;2.92;;;1.70;;
30533;SDS011;17318;52.390;9.754;2023-07-31T10:52:49;2.80;;;1.90;;
30533;SDS011;17318;52.390;9.754;2023-07-31T10:58:32;3.95;;;2.03;;
30533;SDS011;17318;52.390;9.754;2023-07-31T11:00:51;3.10;;;1.98;;
30533;SDS011;17318;52.390;9.754;2023-07-31T11:03:24;3.72;;;1.75;;
30533;SDS011;17318;52.390;9.754;2023-07-31T11:05:52;3.20;;;1.88;;
30533;SDS011;17318;52.390;9.754;2023-07-31T11:08:24;2.60;;;1.67;;
30533;SDS011;17318;52.390;9.754;2023-07-31T11:11:11;2.80;;;1.60;;
30533;SDS011;17318;52.390;9.754;2023-07-31T11:16:09;4.00;;;1.67;;
30533;SDS011;17318;52.390;9.754;2023-07-31T11:18:38;3.42;;;1.90;;
30533;SDS011;17318;52.390;9.754;2023-07-31T11:21:05;3.78;;;1.65;;
30533;SDS011;17318;52.390;9.754;2023-07-31T11:23:31;3.72;;;2.25;;
30533;SDS011;17318;52.390;9.754;2023-07-31T11:26:00;2.60;;;1.73;;
30533;SDS011;17318;52.390;9.754;2023-07-31T11:28:31;5.55;;;1.83;;
30533;SDS011;17318;52.390;9.754;2023-07-31T11:31:00;5.97;;;1.83;;
30533;SDS011;17318;52.390;9.754;2023-07-31T11:33:27;5.28;;;1.83;;
30533;SDS011;17318;52.390;9.754;2023-07-31T11:35:53;2.25;;;1.30;;
30533;SDS011;17318;52.390;9.754;2023-07-31T11:38:22;4.05;;;2.05;;
30533;SDS011;17318;52.390;9.754;2023-07-31T11:40:49;3.33;;;1.77;;
30533;SDS011;17318;52.390;9.754;2023-07-31T11:43:15;3.63;;;2.38;;
30533;SDS011;17318;52.390;9.754;2023-07-31T11:45:51;3.97;;;1.70;;
30533;SDS011;17318;52.390;9.754;2023-07-31T11:48:27;3.00;;;1.80;;
30533;SDS011;17318;52.390;9.754;2023-07-31T11:50:59;6.65;;;2.47;;
30533;SDS011;17318;52.390;9.754;2023-07-31T11:56:07;5.15;;;2.00;;
30533;SDS011;17318;52.390;9.754;2023-07-31T11:58:36;5.85;;;1.98;;
30533;SDS011;17318;52.390;9.754;2023-07-31T12:01:03;4.15;;;1.77;;
30533;SDS011;17318;52.390;9.754;2023-07-31T12:03:29;4.05;;;1.90;;
30533;SDS011;17318;52.390;9.754;2023-07-31T12:05:57;5.82;;;1.80;;
30533;SDS011;17318;52.390;9.754;2023-07-31T12:08:24;3.72;;;1.90;;
30533;SDS011;17318;52.390;9.754;2023-07-31T12:10:51;3.08;;;1.67;;
30533;SDS011;17318;52.390;9.754;2023-07-31T12:13:25;17.15;;;10.77;;
30533;SDS011;17318;52.390;9.754;2023-07-31T12:15:55;5.22;;;3.03;;
30533;SDS011;17318;52.390;9.754;2023-07-31T12:18:22;3.65;;;1.85;;
30533;SDS011;17318;52.390;9.754;2023-07-31T12:20:54;3.08;;;1.73;;
30533;SDS011;17318;52.390;9.754;2023-07-31T12:23:22;4.03;;;2.20;;
30533;SDS011;17318;52.390;9.754;2023-07-31T12:26:05;2.97;;;1.77;;
30533;SDS011;17318;52.390;9.754;2023-07-31T12:28:42;2.30;;;1.50;;
30533;SDS011;17318;52.390;9.754;2023-07-31T12:31:09;4.20;;;1.92;;
30533;SDS011;17318;52.390;9.754;2023-07-31T12:33:37;2.15;;;1.70;;
30533;SDS011;17318;52.390;9.754;2023-07-31T12:36:06;1.40;;;1.20;;
30533;SDS011;17318;52.390;9.754;2023-07-31T12:38:34;2.65;;;1.70;;
30533;SDS011;17318;52.390;9.754;2023-07-31T12:41:00;2.08;;;1.10;;
30533;SDS011;17318;52.390;9.754;2023-07-31T12:43:26;3.33;;;1.58;;
30533;SDS011;17318;52.390;9.754;2023-07-31T12:45:53;5.07;;;1.85;;
